In Rescue
 
Open Full Screen Window  High Contrast Mode
July 24, 2024 6:45 PM EDT
Weather Information
Wind Direction
  ---
Wind Speed
  00 kt (0 mph)
Wind Gust
  00 kt (0 mph)
Altimeter
30.11 in
Visibility
10 SM
Temperature
23° C
73° F
Dewpoint
19° C
66° F
Humidity
78%
1hr Rain Fall
00.00 in.
24hr Rain Fall
00.32 in.
Sky Condition
Clear
VFR

METAR KDLZ 242245Z AUTO 00000KT 10SM CLR 23/19 A3011 RMK AO2

FAA Disclaimer: The data displayed is for advisory purposes only and is not to be used for flight planning or operations.